sensor_id;sensor_type;location;lat;lon;timestamp;pressure;altitude;pressure_sealevel;temperature;humidity
63927;BME280;50103;47.960;21.712;2023-01-01T06:02:39;101655.36;;;3.92;100.00
63927;BME280;50103;47.960;21.712;2023-01-01T06:05:05;101658.19;;;3.92;100.00
63927;BME280;50103;47.960;21.712;2023-01-01T06:07:30;101655.95;;;3.90;100.00
63927;BME280;50103;47.960;21.712;2023-01-01T06:09:56;101655.39;;;3.86;100.00
63927;BME280;50103;47.960;21.712;2023-01-01T06:12:21;101656.70;;;3.82;100.00
63927;BME280;50103;47.960;21.712;2023-01-01T06:14:47;101658.69;;;3.80;100.00
63927;BME280;50103;47.960;21.712;2023-01-01T06:17:12;101660.98;;;3.79;100.00
63927;BME280;50103;47.960;21.712;2023-01-01T06:19:37;101658.73;;;3.78;100.00
63927;BME280;50103;47.960;21.712;2023-01-01T06:22:03;101658.75;;;3.78;100.00
63927;BME280;50103;47.960;21.712;2023-01-01T06:24:30;101659.82;;;3.77;100.00
63927;BME280;50103;47.960;21.712;2023-01-01T06:26:55;101655.98;;;3.76;100.00
63927;BME280;50103;47.960;21.712;2023-01-01T06:29:21;101656.34;;;3.76;100.00
63927;BME280;50103;47.960;21.712;2023-01-01T06:31:47;101657.39;;;3.76;100.00
63927;BME280;50103;47.960;21.712;2023-01-01T06:34:12;101660.41;;;3.75;100.00
63927;BME280;50103;47.960;21.712;2023-01-01T06:36:38;101661.27;;;3.75;100.00
63927;BME280;50103;47.960;21.712;2023-01-01T06:39:03;101660.55;;;3.76;100.00
63927;BME280;50103;47.960;21.712;2023-01-01T06:41:29;101654.58;;;3.77;100.00
63927;BME280;50103;47.960;21.712;2023-01-01T06:43:56;101654.05;;;3.77;100.00
63927;BME280;50103;47.960;21.712;2023-01-01T06:48:56;101660.84;;;3.79;100.00
63927;BME280;50103;47.960;21.712;2023-01-01T06:51:24;101662.04;;;3.79;100.00
63927;BME280;50103;47.960;21.712;2023-01-01T06:53:51;101664.25;;;3.82;100.00
63927;BME280;50103;47.960;21.712;2023-01-01T06:56:17;101670.71;;;3.83;100.00
63927;BME280;50103;47.960;21.712;2023-01-01T06:58:43;101670.70;;;3.83;100.00
63927;BME280;50103;47.960;21.712;2023-01-01T07:01:11;101673.84;;;3.84;100.00
63927;BME280;50103;47.960;21.712;2023-01-01T07:03:37;101672.27;;;3.84;100.00
63927;BME280;50103;47.960;21.712;2023-01-01T07:06:04;101675.05;;;3.84;100.00
63927;BME280;50103;47.960;21.712;2023-01-01T07:08:30;101676.98;;;3.84;100.00
63927;BME280;50103;47.960;21.712;2023-01-01T07:10:55;101680.14;;;3.85;100.00
63927;BME280;50103;47.960;21.712;2023-01-01T07:13:25;101684.52;;;3.84;100.00
63927;BME280;50103;47.960;21.712;2023-01-01T07:15:51;101684.48;;;3.85;100.00
63927;BME280;50103;47.960;21.712;2023-01-01T07:18:18;101689.74;;;3.85;100.00
63927;BME280;50103;47.960;21.712;2023-01-01T07:20:50;101695.67;;;3.86;100.00
63927;BME280;50103;47.960;21.712;2023-01-01T07:23:17;101695.67;;;3.86;100.00
63927;BME280;50103;47.960;21.712;2023-01-01T07:25:43;101698.66;;;3.86;100.00
63927;BME280;50103;47.960;21.712;2023-01-01T07:28:08;101697.77;;;3.87;100.00
63927;BME280;50103;47.960;21.712;2023-01-01T07:30:35;101696.86;;;3.88;100.00
63927;BME280;50103;47.960;21.712;2023-01-01T07:33:00;101699.11;;;3.89;100.00
63927;BME280;50103;47.960;21.712;2023-01-01T07:35:26;101703.25;;;3.90;100.00
63927;BME280;50103;47.960;21.712;2023-01-01T07:37:51;101708.14;;;3.91;100.00
63927;BME280;50103;47.960;21.712;2023-01-01T07:40:17;101706.71;;;3.92;100.00
63927;BME280;50103;47.960;21.712;2023-01-01T07:42:42;101698.64;;;3.93;100.00
63927;BME280;50103;47.960;21.712;2023-01-01T07:45:11;101697.91;;;3.94;100.00
63927;BME280;50103;47.960;21.712;2023-01-01T07:47:37;101705.06;;;3.95;100.00
63927;BME280;50103;47.960;21.712;2023-01-01T07:50:03;101702.38;;;3.97;100.00
63927;BME280;50103;47.960;21.712;2023-01-01T07:52:29;101703.02;;;4.00;100.00
63927;BME280;50103;47.960;21.712;2023-01-01T07:54:54;101702.80;;;4.01;100.00
63927;BME280;50103;47.960;21.712;2023-01-01T07:57:19;101708.53;;;4.03;100.00
63927;BME280;50103;47.960;21.712;2023-01-01T07:59:45;101716.69;;;4.06;100.00
63927;BME280;50103;47.960;21.712;2023-01-01T08:02:11;101724.00;;;4.07;100.00
63927;BME280;50103;47.960;21.712;2023-01-01T08:04:38;101726.73;;;4.10;100.00
63927;BME280;50103;47.960;21.712;2023-01-01T08:07:04;101727.60;;;4.10;100.00
63927;BME280;50103;47.960;21.712;2023-01-01T08:09:29;101732.42;;;4.13;100.00
63927;BME280;50103;47.960;21.712;2023-01-01T08:11:55;101738.17;;;4.15;100.00
63927;BME280;50103;47.960;21.712;2023-01-01T08:14:23;101744.59;;;4.17;100.00
63927;BME280;50103;47.960;21.712;2023-01-01T08:16:48;101749.06;;;4.20;100.00
63927;BME280;50103;47.960;21.712;2023-01-01T08:19:14;101748.23;;;4.25;100.00
63927;BME280;50103;47.960;21.712;2023-01-01T08:21:39;101747.23;;;4.29;100.00
63927;BME280;50103;47.960;21.712;2023-01-01T08:24:05;101744.84;;;4.34;100.00
63927;BME280;50103;47.960;21.712;2023-01-01T08:26:32;101742.97;;;4.38;100.00
63927;BME280;50103;47.960;21.712;2023-01-01T08:29:02;101745.09;;;4.43;100.00
63927;BME280;50103;47.960;21.712;2023-01-01T08:31:28;101748.30;;;4.47;100.00
63927;BME280;50103;47.960;21.712;2023-01-01T08:33:54;101755.69;;;4.53;100.00
63927;BME280;50103;47.960;21.712;2023-01-01T08:36:19;101759.55;;;4.58;100.00
63927;BME280;50103;47.960;21.712;2023-01-01T08:38:45;101758.65;;;4.65;100.00
63927;BME280;50103;47.960;21.712;2023-01-01T08:41:11;101753.21;;;4.71;100.00
63927;BME280;50103;47.960;21.712;2023-01-01T08:43:36;101758.11;;;4.77;100.00
63927;BME280;50103;47.960;21.712;2023-01-01T08:46:02;101761.60;;;4.84;100.00
63927;BME280;50103;47.960;21.712;2023-01-01T08:48:27;101765.91;;;4.92;100.00
63927;BME280;50103;47.960;21.712;2023-01-01T08:50:54;101765.31;;;5.01;100.00
63927;BME280;50103;47.960;21.712;2023-01-01T08:53:20;101772.94;;;5.09;100.00
63927;BME280;50103;47.960;21.712;2023-01-01T08:58:22;101773.32;;;5.25;100.00
63927;BME280;50103;47.960;21.712;2023-01-01T09:00:47;101771.69;;;5.33;100.00
63927;BME280;50103;47.960;21.712;2023-01-01T09:03:13;101779.50;;;5.40;100.00
63927;BME280;50103;47.960;21.712;2023-01-01T09:05:38;101782.71;;;5.50;100.00
63927;BME280;50103;47.960;21.712;2023-01-01T09:08:04;101783.10;;;5.59;100.00
63927;BME280;50103;47.960;21.712;2023-01-01T09:10:29;101779.31;;;5.68;100.00
63927;BME280;50103;47.960;21.712;2023-01-01T09:12:54;101773.23;;;5.76;100.00
63927;BME280;50103;47.960;21.712;2023-01-01T09:15:20;101769.63;;;5.84;100.00
63927;BME280;50103;47.960;21.712;2023-01-01T09:17:45;101771.15;;;5.91;100.00
63927;BME280;50103;47.960;21.712;2023-01-01T09:20:11;101767.42;;;5.98;100.00
63927;BME280;50103;47.960;21.712;2023-01-01T09:22:36;101763.64;;;6.05;100.00
63927;BME280;50103;47.960;21.712;2023-01-01T09:25:02;101765.48;;;6.13;100.00
63927;BME280;50103;47.960;21.712;2023-01-01T09:27:27;101764.04;;;6.19;100.00
63927;BME280;50103;47.960;21.712;2023-01-01T09:29:53;101759.55;;;6.26;100.00
63927;BME280;50103;47.960;21.712;2023-01-01T09:32:18;101757.36;;;6.34;100.00
63927;BME280;50103;47.960;21.712;2023-01-01T09:34:44;101755.48;;;6.42;100.00
63927;BME280;50103;47.960;21.712;2023-01-01T09:37:09;101750.56;;;6.51;100.00
63927;BME280;50103;47.960;21.712;2023-01-01T09:39:35;101746.77;;;6.58;100.00
63927;BME280;50103;47.960;21.712;2023-01-01T09:42:14;101741.41;;;6.65;100.00
63927;BME280;50103;47.960;21.712;2023-01-01T09:47:41;101738.18;;;6.80;100.00
63927;BME280;50103;47.960;21.712;2023-01-01T09:50:18;101736.03;;;6.90;100.00
63927;BME280;50103;47.960;21.712;2023-01-01T09:55:27;101728.23;;;7.18;100.00
63927;BME280;50103;47.960;21.712;2023-01-01T09:57:54;101728.19;;;7.36;100.00
63927;BME280;50103;47.960;21.712;2023-01-01T10:00:21;101727.13;;;7.53;100.00
63927;BME280;50103;47.960;21.712;2023-01-01T10:03:09;101727.01;;;7.68;100.00
63927;BME280;50103;47.960;21.712;2023-01-01T10:05:59;101725.90;;;7.82;100.00
63927;BME280;50103;47.960;21.712;2023-01-01T10:08:36;101727.70;;;7.93;100.00
63927;BME280;50103;47.960;21.712;2023-01-01T10:13:40;101733.38;;;8.13;100.00
63927;BME280;50103;47.960;21.712;2023-01-01T10:18:53;101730.57;;;8.28;100.00
63927;BME280;50103;47.960;21.712;2023-01-01T10:21:24;101730.61;;;8.35;100.00
63927;BME280;50103;47.960;21.712;2023-01-01T10:23:52;101729.86;;;8.44;100.00
63927;BME280;50103;47.960;21.712;2023-01-01T10:26:23;101728.03;;;8.54;100.00
63927;BME280;50103;47.960;21.712;2023-01-01T10:29:18;101721.65;;;8.61;100.00
63927;BME280;50103;47.960;21.712;2023-01-01T10:31:47;101722.48;;;8.74;100.00
63927;BME280;50103;47.960;21.712;2023-01-01T10:34:22;101727.17;;;8.87;100.00
63927;BME280;50103;47.960;21.712;2023-01-01T10:36:53;101727.83;;;9.03;100.00
63927;BME280;50103;47.960;21.712;2023-01-01T10:39:19;101727.02;;;9.16;100.00
63927;BME280;50103;47.960;21.712;2023-01-01T10:41:45;101725.50;;;9.29;100.00
63927;BME280;50103;47.960;21.712;2023-01-01T10:44:12;101714.47;;;9.41;100.00
63927;BME280;50103;47.960;21.712;2023-01-01T10:46:46;101710.80;;;9.51;100.00
63927;BME280;50103;47.960;21.712;2023-01-01T10:49:13;101715.73;;;9.58;100.00
63927;BME280;50103;47.960;21.712;2023-01-01T10:51:48;101709.50;;;9.62;100.00
63927;BME280;50103;47.960;21.712;2023-01-01T10:54:37;101704.23;;;9.65;100.00
63927;BME280;50103;47.960;21.712;2023-01-01T10:57:29;101702.36;;;9.67;100.00
63927;BME280;50103;47.960;21.712;2023-01-01T11:02:34;101702.64;;;9.68;100.00
63927;BME280;50103;47.960;21.712;2023-01-01T11:05:20;101698.51;;;9.70;100.00
63927;BME280;50103;47.960;21.712;2023-01-01T11:07:46;101703.33;;;9.72;100.00
63927;BME280;50103;47.960;21.712;2023-01-01T11:10:23;101700.31;;;9.75;100.00
63927;BME280;50103;47.960;21.712;2023-01-01T11:12:55;101699.85;;;9.77;100.00
63927;BME280;50103;47.960;21.712;2023-01-01T11:15:41;101696.10;;;9.82;100.00
63927;BME280;50103;47.960;21.712;2023-01-01T11:18:28;101697.90;;;9.92;100.00
63927;BME280;50103;47.960;21.712;2023-01-01T11:21:01;101693.88;;;10.04;100.00
63927;BME280;50103;47.960;21.712;2023-01-01T11:23:29;101696.08;;;10.16;100.00
63927;BME280;50103;47.960;21.712;2023-01-01T11:26:41;101696.44;;;10.30;100.00
63927;BME280;50103;47.960;21.712;2023-01-01T11:28:42;101696.77;;;10.46;100.00
63927;BME280;50103;47.960;21.712;2023-01-01T11:31:27;101695.10;;;10.64;100.00
63927;BME280;50103;47.960;21.712;2023-01-01T11:33:55;101687.88;;;10.79;100.00
63927;BME280;50103;47.960;21.712;2023-01-01T11:36:29;101683.88;;;10.90;100.00
63927;BME280;50103;47.960;21.712;2023-01-01T11:39:24;101681.11;;;10.95;100.00
63927;BME280;50103;47.960;21.712;2023-01-01T11:41:55;101675.70;;;11.00;100.00
63927;BME280;50103;47.960;21.712;2023-01-01T11:44:43;101672.30;;;11.01;100.00
63927;BME280;50103;47.960;21.712;2023-01-01T11:47:25;101672.23;;;11.02;100.00
63927;BME280;50103;47.960;21.712;2023-01-01T11:50:31;101675.03;;;11.05;100.00
63927;BME280;50103;47.960;21.712;2023-01-01T11:53:24;101669.39;;;11.08;100.00
63927;BME280;50103;47.960;21.712;2023-01-01T12:01:46;101655.20;;;11.38;100.00
63927;BME280;50103;47.960;21.712;2023-01-01T12:04:18;101650.30;;;11.52;100.00
63927;BME280;50103;47.960;21.712;2023-01-01T12:07:09;101648.69;;;11.64;100.00
63927;BME280;50103;47.960;21.712;2023-01-01T12:09:49;101644.80;;;11.90;100.00
63927;BME280;50103;47.960;21.712;2023-01-01T12:12:23;101635.45;;;12.07;100.00
63927;BME280;50103;47.960;21.712;2023-01-01T12:17:36;101624.94;;;12.36;100.00
63927;BME280;50103;47.960;21.712;2023-01-01T12:20:17;101624.51;;;12.56;100.00
63927;BME280;50103;47.960;21.712;2023-01-01T12:22:46;101625.84;;;12.82;100.00
63927;BME280;50103;47.960;21.712;2023-01-01T12:25:18;101621.44;;;13.06;100.00
63927;BME280;50103;47.960;21.712;2023-01-01T12:31:02;101626.94;;;13.40;100.00
63927;BME280;50103;47.960;21.712;2023-01-01T12:33:52;101630.88;;;13.63;100.00
63927;BME280;50103;47.960;21.712;2023-01-01T12:47:02;101611.70;;;14.08;100.00
63927;BME280;50103;47.960;21.712;2023-01-01T12:52:19;101609.95;;;14.52;100.00
63927;BME280;50103;47.960;21.712;2023-01-01T13:00:30;101608.13;;;15.29;100.00
63927;BME280;50103;47.960;21.712;2023-01-01T13:05:50;101615.21;;;15.81;100.00
63927;BME280;50103;47.960;21.712;2023-01-01T13:08:20;101609.84;;;15.94;99.07
63927;BME280;50103;47.960;21.712;2023-01-01T13:10:49;101609.77;;;15.84;100.00
63927;BME280;50103;47.960;21.712;2023-01-01T13:13:16;101612.13;;;15.61;100.00
63927;BME280;50103;47.960;21.712;2023-01-01T13:15:53;101617.84;;;15.31;100.00
63927;BME280;50103;47.960;21.712;2023-01-01T13:18:22;101618.80;;;15.04;100.00
63927;BME280;50103;47.960;21.712;2023-01-01T13:34:39;101594.10;;;15.28;100.00
63927;BME280;50103;47.960;21.712;2023-01-01T13:37:24;101599.07;;;15.40;99.98
63927;BME280;50103;47.960;21.712;2023-01-01T13:42:39;101606.93;;;15.31;99.82
63927;BME280;50103;47.960;21.712;2023-01-01T13:48:08;101617.58;;;15.03;98.84
63927;BME280;50103;47.960;21.712;2023-01-01T14:04:47;101622.64;;;14.22;100.00
63927;BME280;50103;47.960;21.712;2023-01-01T14:07:32;101631.30;;;14.13;100.00
63927;BME280;50103;47.960;21.712;2023-01-01T14:12:43;101641.04;;;13.99;100.00
63927;BME280;50103;47.960;21.712;2023-01-01T14:17:42;101652.04;;;13.79;100.00
63927;BME280;50103;47.960;21.712;2023-01-01T14:20:14;101656.58;;;13.68;100.00
63927;BME280;50103;47.960;21.712;2023-01-01T14:22:43;101658.29;;;13.56;100.00
63927;BME280;50103;47.960;21.712;2023-01-01T14:25:25;101661.23;;;13.46;100.00
63927;BME280;50103;47.960;21.712;2023-01-01T14:27:56;101663.98;;;13.40;100.00
63927;BME280;50103;47.960;21.712;2023-01-01T14:30:23;101665.80;;;13.34;100.00
63927;BME280;50103;47.960;21.712;2023-01-01T14:32:57;101666.48;;;13.29;100.00
63927;BME280;50103;47.960;21.712;2023-01-01T14:35:23;101663.34;;;13.23;100.00
63927;BME280;50103;47.960;21.712;2023-01-01T14:37:49;101663.83;;;13.15;100.00
63927;BME280;50103;47.960;21.712;2023-01-01T14:40:18;101670.01;;;13.08;100.00
63927;BME280;50103;47.960;21.712;2023-01-01T14:42:55;101667.46;;;13.00;100.00
63927;BME280;50103;47.960;21.712;2023-01-01T14:45:22;101659.85;;;12.92;100.00
63927;BME280;50103;47.960;21.712;2023-01-01T14:47:50;101655.80;;;12.83;100.00
63927;BME280;50103;47.960;21.712;2023-01-01T14:50:24;101663.91;;;12.73;100.00
63927;BME280;50103;47.960;21.712;2023-01-01T14:52:56;101667.38;;;12.63;100.00
63927;BME280;50103;47.960;21.712;2023-01-01T14:55:25;101668.16;;;12.54;100.00
63927;BME280;50103;47.960;21.712;2023-01-01T14:57:56;101673.05;;;12.44;100.00
63927;BME280;50103;47.960;21.712;2023-01-01T15:00:26;101674.30;;;12.36;100.00
63927;BME280;50103;47.960;21.712;2023-01-01T15:02:52;101676.94;;;12.28;100.00
63927;BME280;50103;47.960;21.712;2023-01-01T15:05:32;101675.27;;;12.20;100.00
63927;BME280;50103;47.960;21.712;2023-01-01T15:08:02;101674.29;;;12.13;100.00
63927;BME280;50103;47.960;21.712;2023-01-01T15:10:31;101676.04;;;12.08;100.00
63927;BME280;50103;47.960;21.712;2023-01-01T15:12:58;101676.36;;;12.00;100.00
63927;BME280;50103;47.960;21.712;2023-01-01T15:15:38;101679.52;;;11.92;100.00
63927;BME280;50103;47.960;21.712;2023-01-01T15:18:06;101680.80;;;11.85;100.00
63927;BME280;50103;47.960;21.712;2023-01-01T15:20:51;101679.74;;;11.79;100.00
63927;BME280;50103;47.960;21.712;2023-01-01T15:23:18;101676.45;;;11.72;100.00
63927;BME280;50103;47.960;21.712;2023-01-01T15:25:43;101674.94;;;11.65;100.00
63927;BME280;50103;47.960;21.712;2023-01-01T15:28:18;101675.21;;;11.57;100.00
63927;BME280;50103;47.960;21.712;2023-01-01T15:30:54;101673.35;;;11.49;100.00
63927;BME280;50103;47.960;21.712;2023-01-01T15:33:21;101674.85;;;11.42;100.00
63927;BME280;50103;47.960;21.712;2023-01-01T15:35:51;101677.21;;;11.35;100.00
63927;BME280;50103;47.960;21.712;2023-01-01T15:38:28;101680.34;;;11.27;100.00
63927;BME280;50103;47.960;21.712;2023-01-01T15:40:58;101685.10;;;11.15;100.00
63927;BME280;50103;47.960;21.712;2023-01-01T15:43:26;101685.46;;;11.06;100.00
63927;BME280;50103;47.960;21.712;2023-01-01T15:46:20;101683.27;;;10.98;100.00
63927;BME280;50103;47.960;21.712;2023-01-01T15:48:51;101683.61;;;10.89;100.00
63927;BME280;50103;47.960;21.712;2023-01-01T15:51:19;101683.59;;;10.83;100.00
63927;BME280;50103;47.960;21.712;2023-01-01T15:53:51;101684.25;;;10.77;100.00
63927;BME280;50103;47.960;21.712;2023-01-01T15:56:17;101685.89;;;10.70;100.00
63927;BME280;50103;47.960;21.712;2023-01-01T15:59:02;101683.43;;;10.64;100.00
63927;BME280;50103;47.960;21.712;2023-01-01T16:01:31;101681.28;;;10.55;100.00
63927;BME280;50103;47.960;21.712;2023-01-01T16:04:23;101680.76;;;10.48;100.00
63927;BME280;50103;47.960;21.712;2023-01-01T16:06:52;101682.17;;;10.38;100.00
63927;BME280;50103;47.960;21.712;2023-01-01T16:09:19;101683.55;;;10.33;100.00
63927;BME280;50103;47.960;21.712;2023-01-01T16:11:53;101687.40;;;10.26;100.00
63927;BME280;50103;47.960;21.712;2023-01-01T16:14:20;101687.83;;;10.19;100.00
63927;BME280;50103;47.960;21.712;2023-01-01T16:16:53;101684.36;;;10.10;100.00
63927;BME280;50103;47.960;21.712;2023-01-01T16:19:21;101688.17;;;9.98;100.00
63927;BME280;50103;47.960;21.712;2023-01-01T16:21:47;101682.56;;;9.91;100.00
63927;BME280;50103;47.960;21.712;2023-01-01T16:24:14;101688.65;;;9.82;100.00
63927;BME280;50103;47.960;21.712;2023-01-01T16:26:41;101688.56;;;9.74;100.00
63927;BME280;50103;47.960;21.712;2023-01-01T16:29:07;101689.98;;;9.67;100.00
63927;BME280;50103;47.960;21.712;2023-01-01T16:31:33;101691.25;;;9.60;100.00
63927;BME280;50103;47.960;21.712;2023-01-01T16:33:59;101689.78;;;9.50;100.00
63927;BME280;50103;47.960;21.712;2023-01-01T16:36:25;101692.18;;;9.44;100.00
63927;BME280;50103;47.960;21.712;2023-01-01T16:38:52;101688.23;;;9.39;100.00
63927;BME280;50103;47.960;21.712;2023-01-01T16:41:18;101692.19;;;9.34;100.00
63927;BME280;50103;47.960;21.712;2023-01-01T16:43:44;101689.02;;;9.27;100.00
63927;BME280;50103;47.960;21.712;2023-01-01T16:46:11;101695.44;;;9.19;100.00
63927;BME280;50103;47.960;21.712;2023-01-01T16:48:37;101694.92;;;9.11;100.00
63927;BME280;50103;47.960;21.712;2023-01-01T16:51:03;101702.55;;;9.06;100.00
63927;BME280;50103;47.960;21.712;2023-01-01T16:53:30;101708.14;;;9.04;100.00
63927;BME280;50103;47.960;21.712;2023-01-01T16:55:56;101706.11;;;9.02;100.00
63927;BME280;50103;47.960;21.712;2023-01-01T16:58:22;101702.48;;;9.01;100.00
63927;BME280;50103;47.960;21.712;2023-01-01T17:00:47;101700.02;;;8.97;100.00
63927;BME280;50103;47.960;21.712;2023-01-01T17:03:14;101703.90;;;8.93;100.00
63927;BME280;50103;47.960;21.712;2023-01-01T17:05:40;101702.66;;;8.90;100.00
63927;BME280;50103;47.960;21.712;2023-01-01T17:08:06;101705.40;;;8.84;100.00
63927;BME280;50103;47.960;21.712;2023-01-01T17:10:31;101709.39;;;8.78;100.00
63927;BME280;50103;47.960;21.712;2023-01-01T17:12:57;101708.48;;;8.75;100.00
63927;BME280;50103;47.960;21.712;2023-01-01T17:15:30;101710.27;;;8.71;100.00
63927;BME280;50103;47.960;21.712;2023-01-01T17:17:56;101710.35;;;8.65;100.00
63927;BME280;50103;47.960;21.712;2023-01-01T17:20:23;101713.04;;;8.61;100.00
63927;BME280;50103;47.960;21.712;2023-01-01T17:22:49;101710.42;;;8.57;100.00
63927;BME280;50103;47.960;21.712;2023-01-01T17:25:15;101712.38;;;8.52;100.00
63927;BME280;50103;47.960;21.712;2023-01-01T17:27:41;101714.16;;;8.48;100.00
63927;BME280;50103;47.960;21.712;2023-01-01T17:30:07;101719.67;;;8.43;100.00
63927;BME280;50103;47.960;21.712;2023-01-01T17:32:34;101722.34;;;8.39;100.00
63927;BME280;50103;47.960;21.712;2023-01-01T17:35:00;101728.05;;;8.33;100.00
63927;BME280;50103;47.960;21.712;2023-01-01T17:37:26;101730.55;;;8.28;100.00
63927;BME280;50103;47.960;21.712;2023-01-01T17:39:51;101731.66;;;8.23;100.00
63927;BME280;50103;47.960;21.712;2023-01-01T17:42:17;101731.83;;;8.19;100.00
63927;BME280;50103;47.960;21.712;2023-01-01T17:44:43;101730.43;;;8.15;100.00
63927;BME280;50103;47.960;21.712;2023-01-01T17:47:08;101733.27;;;8.11;100.00
63927;BME280;50103;47.960;21.712;2023-01-01T17:49:34;101737.83;;;8.08;100.00
63927;BME280;50103;47.960;21.712;2023-01-01T17:51:59;101736.23;;;8.04;100.00
63927;BME280;50103;47.960;21.712;2023-01-01T17:54:25;101731.48;;;8.00;100.00
63927;BME280;50103;47.960;21.712;2023-01-01T17:56:50;101733.38;;;7.97;100.00
63927;BME280;50103;47.960;21.712;2023-01-01T17:59:17;101732.80;;;7.94;100.00
63927;BME280;50103;47.960;21.712;2023-01-01T18:01:42;101730.93;;;7.92;100.00
63927;BME280;50103;47.960;21.712;2023-01-01T18:04:08;101729.40;;;7.91;100.00
63927;BME280;50103;47.960;21.712;2023-01-01T18:06:36;101728.05;;;7.89;100.00
63927;BME280;50103;47.960;21.712;2023-01-01T18:09:03;101728.13;;;7.88;100.00
63927;BME280;50103;47.960;21.712;2023-01-01T18:11:31;101727.70;;;7.85;100.00
63927;BME280;50103;47.960;21.712;2023-01-01T18:13:59;101730.29;;;7.82;100.00
63927;BME280;50103;47.960;21.712;2023-01-01T18:16:25;101723.05;;;7.79;100.00
63927;BME280;50103;47.960;21.712;2023-01-01T18:18:51;101723.94;;;7.74;100.00
63927;BME280;50103;47.960;21.712;2023-01-01T18:21:21;101722.70;;;7.70;100.00
63927;BME280;50103;47.960;21.712;2023-01-01T18:23:53;101727.09;;;7.66;100.00
63927;BME280;50103;47.960;21.712;2023-01-01T18:26:20;101726.98;;;7.61;100.00
63927;BME280;50103;47.960;21.712;2023-01-01T18:28:55;101727.17;;;7.57;100.00
63927;BME280;50103;47.960;21.712;2023-01-01T18:31:23;101728.21;;;7.52;100.00
63927;BME280;50103;47.960;21.712;2023-01-01T18:33:49;101728.09;;;7.47;100.00
63927;BME280;50103;47.960;21.712;2023-01-01T18:36:17;101725.36;;;7.40;100.00
63927;BME280;50103;47.960;21.712;2023-01-01T18:39:20;101725.80;;;7.33;100.00
63927;BME280;50103;47.960;21.712;2023-01-01T18:42:27;101727.16;;;7.27;100.00
63927;BME280;50103;47.960;21.712;2023-01-01T18:45:11;101726.11;;;7.22;100.00
63927;BME280;50103;47.960;21.712;2023-01-01T18:47:37;101724.13;;;7.19;100.00
63927;BME280;50103;47.960;21.712;2023-01-01T18:50:19;101719.29;;;7.16;100.00
63927;BME280;50103;47.960;21.712;2023-01-01T18:52:59;101722.45;;;7.13;100.00
63927;BME280;50103;47.960;21.712;2023-01-01T18:55:27;101725.57;;;7.10;100.00
63927;BME280;50103;47.960;21.712;2023-01-01T18:57:57;101727.62;;;7.07;100.00
63927;BME280;50103;47.960;21.712;2023-01-01T19:00:26;101732.87;;;7.03;100.00
63927;BME280;50103;47.960;21.712;2023-01-01T19:03:02;101736.35;;;6.99;100.00
63927;BME280;50103;47.960;21.712;2023-01-01T19:05:30;101746.02;;;6.96;100.00
63927;BME280;50103;47.960;21.712;2023-01-01T19:08:18;101748.98;;;6.92;100.00
63927;BME280;50103;47.960;21.712;2023-01-01T19:11:04;101748.82;;;6.87;100.00
63927;BME280;50103;47.960;21.712;2023-01-01T19:13:35;101743.92;;;6.82;100.00
63927;BME280;50103;47.960;21.712;2023-01-01T19:18:37;101735.55;;;6.75;100.00
63927;BME280;50103;47.960;21.712;2023-01-01T19:23:49;101732.09;;;6.69;100.00
63927;BME280;50103;47.960;21.712;2023-01-01T19:26:37;101733.40;;;6.66;100.00
63927;BME280;50103;47.960;21.712;2023-01-01T19:29:19;101728.96;;;6.63;100.00
63927;BME280;50103;47.960;21.712;2023-01-01T19:31:50;101731.36;;;6.60;100.00
63927;BME280;50103;47.960;21.712;2023-01-01T19:34:16;101729.52;;;6.58;100.00
63927;BME280;50103;47.960;21.712;2023-01-01T19:36:42;101729.63;;;6.55;100.00
63927;BME280;50103;47.960;21.712;2023-01-01T19:39:09;101724.11;;;6.52;100.00
63927;BME280;50103;47.960;21.712;2023-01-01T19:41:35;101723.61;;;6.47;100.00
63927;BME280;50103;47.960;21.712;2023-01-01T19:44:01;101722.64;;;6.45;100.00
63927;BME280;50103;47.960;21.712;2023-01-01T19:46:27;101721.52;;;6.42;100.00
63927;BME280;50103;47.960;21.712;2023-01-01T19:48:53;101718.09;;;6.39;100.00
63927;BME280;50103;47.960;21.712;2023-01-01T19:51:19;101717.27;;;6.37;100.00
63927;BME280;50103;47.960;21.712;2023-01-01T19:53:54;101714.36;;;6.35;100.00
63927;BME280;50103;47.960;21.712;2023-01-01T19:56:20;101711.29;;;6.33;100.00
63927;BME280;50103;47.960;21.712;2023-01-01T19:58:46;101709.20;;;6.33;100.00
